Time,TemperatureF,DewpointF,PressureIn,WindDirection,WindDirectionDegrees,WindSpeedMPH,WindSpeedGustMPH,Humidity,HourlyPrecipIn,Conditions,Clouds,dailyrainin,SolarRadiationWatts/m^2,SoftwareType,DateUTC
2013-04-08 00:02:00,40.0,27.0,-100.00,NW,308,2.0,7.0,60,0.00,,,0.31,122.000000,,2013-04-08 00:02:00,
2013-04-08 00:23:00,39.0,27.0,-100.00,West,281,1.0,5.0,61,0.00,,,0.30,57.000000,,2013-04-08 00:23:00,
2013-04-08 00:33:00,39.0,27.0,-100.00,West,281,1.0,5.0,61,0.00,,,0.30,57.000000,,2013-04-08 00:33:00,
2013-04-08 00:43:00,39.0,27.0,-100.00,West,281,1.0,5.0,61,0.00,,,0.30,57.000000,,2013-04-08 00:43:00,
2013-04-08 00:53:00,39.0,27.0,-100.00,West,281,1.0,5.0,61,0.00,,,0.30,57.000000,,2013-04-08 00:53:00,
2013-04-08 01:02:00,39.0,27.0,-100.00,West,281,1.0,5.0,61,0.00,,,0.30,57.000000,,2013-04-08 01:02:00,
2013-04-08 01:23:00,34.0,26.0,-100.00,ENE,71,0.0,5.0,71,0.00,,,0.29,6.000000,,2013-04-08 01:23:00,
2013-04-08 01:34:00,34.0,26.0,-100.00,ENE,71,0.0,5.0,71,0.00,,,0.29,6.000000,,2013-04-08 01:34:00,
2013-04-08 01:44:00,34.0,26.0,-100.00,ENE,71,0.0,5.0,71,0.00,,,0.29,6.000000,,2013-04-08 01:44:00,
2013-04-08 01:55:00,34.0,26.0,-100.00,ENE,71,0.0,5.0,71,0.00,,,0.29,6.000000,,2013-04-08 01:55:00,
2013-04-08 02:02:00,34.0,26.0,-100.00,ENE,71,0.0,5.0,71,0.00,,,0.29,6.000000,,2013-04-08 02:02:00,
2013-04-08 02:03:00,30.0,27.0,-100.00,SE,127,3.0,6.0,88,0.00,,,0.24,0.000000,,2013-04-08 02:03:00,
2013-04-08 02:33:00,30.0,27.0,-100.00,SE,127,3.0,6.0,88,0.00,,,0.24,0.000000,,2013-04-08 02:33:00,
2013-04-08 02:48:00,30.0,27.0,-100.00,SE,127,3.0,6.0,88,0.00,,,0.24,0.000000,,2013-04-08 02:48:00,
2013-04-08 02:54:00,30.0,27.0,-100.00,SE,127,3.0,6.0,88,0.00,,,0.24,0.000000,,2013-04-08 02:54:00,
2013-04-08 03:03:00,32.0,29.0,-100.00,SE,133,5.0,7.0,90,0.00,,,0.17,0.000000,,2013-04-08 03:03:00,
2013-04-08 03:37:00,32.0,29.0,-100.00,SE,133,5.0,7.0,90,0.00,,,0.17,0.000000,,2013-04-08 03:37:00,
2013-04-08 03:48:00,32.0,29.0,-100.00,SE,133,5.0,7.0,90,0.00,,,0.17,0.000000,,2013-04-08 03:48:00,
2013-04-08 03:57:00,32.0,29.0,-100.00,SE,133,5.0,7.0,90,0.00,,,0.17,0.000000,,2013-04-08 03:57:00,
2013-04-08 04:23:00,31.0,29.0,-100.00,ESE,118,5.0,7.0,93,0.00,,,0.11,0.000000,,2013-04-08 04:23:00,
2013-04-08 04:34:00,31.0,29.0,-100.00,ESE,118,5.0,7.0,93,0.00,,,0.11,0.000000,,2013-04-08 04:34:00,
2013-04-08 04:44:00,31.0,29.0,-100.00,ESE,118,5.0,7.0,93,0.00,,,0.11,0.000000,,2013-04-08 04:44:00,
2013-04-08 04:53:00,31.0,29.0,-100.00,ESE,118,5.0,7.0,93,0.00,,,0.11,0.000000,,2013-04-08 04:53:00,
2013-04-08 05:02:00,31.0,29.0,-100.00,ESE,118,5.0,7.0,93,0.00,,,0.11,0.000000,,2013-04-08 05:02:00,
2013-04-08 05:32:00,28.0,26.0,-100.00,SSE,167,1.0,6.0,93,0.00,,,0.09,0.000000,,2013-04-08 05:32:00,
2013-04-08 05:42:00,28.0,26.0,-100.00,SSE,167,1.0,6.0,93,0.00,,,0.09,0.000000,,2013-04-08 05:42:00,
2013-04-08 05:52:00,28.0,26.0,-100.00,SSE,167,1.0,6.0,93,0.00,,,0.09,0.000000,,2013-04-08 05:52:00,
2013-04-08 06:02:00,28.0,26.0,-100.00,SSE,167,1.0,6.0,93,0.00,,,0.09,0.000000,,2013-04-08 06:02:00,
2013-04-08 06:32:00,30.0,28.0,-100.00,ESE,122,4.0,6.0,94,0.00,,,0.04,0.000000,,2013-04-08 06:32:00,
2013-04-08 06:43:00,30.0,28.0,-100.00,ESE,122,4.0,6.0,94,0.00,,,0.04,0.000000,,2013-04-08 06:43:00,
2013-04-08 06:52:00,30.0,28.0,-100.00,ESE,122,4.0,6.0,94,0.00,,,0.04,0.000000,,2013-04-08 06:52:00,
2013-04-08 07:02:00,30.0,28.0,-100.00,ESE,122,4.0,6.0,94,0.00,,,0.04,0.000000,,2013-04-08 07:02:00,
2013-04-08 07:42:00,30.0,29.0,-100.00,SE,134,4.0,6.0,95,0.00,,,0.02,0.000000,,2013-04-08 07:42:00,
2013-04-08 07:52:00,30.0,29.0,-100.00,SE,134,4.0,6.0,95,0.00,,,0.02,0.000000,,2013-04-08 07:52:00,
2013-04-08 08:02:00,30.0,29.0,-100.00,SE,134,4.0,6.0,95,0.00,,,0.02,0.000000,,2013-04-08 08:02:00,
2013-04-08 08:33:00,30.0,29.0,-100.00,East,95,4.0,7.0,95,0.00,,,0.01,0.000000,,2013-04-08 08:33:00,
2013-04-08 08:43:00,30.0,29.0,-100.00,East,95,4.0,7.0,95,0.00,,,0.01,0.000000,,2013-04-08 08:43:00,
2013-04-08 08:52:00,30.0,29.0,-100.00,East,95,4.0,7.0,95,0.00,,,0.01,0.000000,,2013-04-08 08:52:00,
2013-04-08 09:02:00,30.0,29.0,-100.00,East,95,4.0,7.0,95,0.00,,,0.01,0.000000,,2013-04-08 09:02:00,
2013-04-08 09:03:00,30.0,28.0,-100.00,ESE,109,3.0,7.0,94,0.00,,,0.00,0.000000,,2013-04-08 09:03:00,
2013-04-08 09:33:00,30.0,28.0,-100.00,ESE,109,3.0,7.0,94,0.00,,,0.00,0.000000,,2013-04-08 09:33:00,
2013-04-08 09:43:00,30.0,28.0,-100.00,ESE,109,3.0,7.0,94,0.00,,,0.00,0.000000,,2013-04-08 09:43:00,
2013-04-08 09:53:00,30.0,28.0,-100.00,ESE,109,3.0,7.0,94,0.00,,,0.00,0.000000,,2013-04-08 09:53:00,
2013-04-08 10:23:00,30.0,28.0,-100.00,East,95,4.0,8.0,94,0.00,,,0.00,0.000000,,2013-04-08 10:23:00,
2013-04-08 10:33:00,30.0,28.0,-100.00,East,95,4.0,8.0,94,0.00,,,0.00,0.000000,,2013-04-08 10:33:00,
2013-04-08 10:43:00,30.0,28.0,-100.00,East,95,4.0,8.0,94,0.00,,,0.00,0.000000,,2013-04-08 10:43:00,
2013-04-08 10:53:00,30.0,28.0,-100.00,East,95,4.0,8.0,94,0.00,,,0.00,0.000000,,2013-04-08 10:53:00,
2013-04-08 11:02:00,30.0,28.0,-100.00,East,95,4.0,8.0,94,0.00,,,0.00,0.000000,,2013-04-08 11:02:00,
2013-04-08 11:03:00,30.0,28.0,-100.00,East,100,5.0,9.0,92,0.00,,,0.00,0.000000,,2013-04-08 11:03:00,
2013-04-08 11:23:00,30.0,28.0,-100.00,East,100,5.0,9.0,92,0.00,,,0.00,0.000000,,2013-04-08 11:23:00,
2013-04-08 11:33:00,30.0,28.0,-100.00,East,100,5.0,9.0,92,0.00,,,0.00,0.000000,,2013-04-08 11:33:00,
2013-04-08 11:43:00,30.0,28.0,-100.00,East,100,5.0,9.0,92,0.00,,,0.00,0.000000,,2013-04-08 11:43:00,
2013-04-08 11:52:00,30.0,28.0,-100.00,East,100,5.0,9.0,92,0.00,,,0.00,0.000000,,2013-04-08 11:52:00,
2013-04-08 12:03:00,31.0,29.0,-100.00,East,99,7.0,12.0,92,0.00,,,0.00,33.000000,,2013-04-08 12:03:00,
2013-04-08 12:23:00,31.0,29.0,-100.00,East,99,7.0,12.0,92,0.00,,,0.00,33.000000,,2013-04-08 12:23:00,
2013-04-08 12:33:00,31.0,29.0,-100.00,East,99,7.0,12.0,92,0.00,,,0.00,33.000000,,2013-04-08 12:33:00,
2013-04-08 12:43:00,31.0,29.0,-100.00,East,99,7.0,12.0,92,0.00,,,0.00,33.000000,,2013-04-08 12:43:00,
2013-04-08 12:53:00,31.0,29.0,-100.00,East,99,7.0,12.0,92,0.00,,,0.00,33.000000,,2013-04-08 12:53:00,
2013-04-08 13:33:00,32.0,29.0,-100.00,East,100,6.0,11.0,90,0.00,,,0.00,48.000000,,2013-04-08 13:33:00,
2013-04-08 13:43:00,32.0,29.0,-100.00,East,100,6.0,11.0,90,0.00,,,0.00,48.000000,,2013-04-08 13:43:00,
2013-04-08 13:52:00,32.0,29.0,-100.00,East,100,6.0,11.0,90,0.00,,,0.00,48.000000,,2013-04-08 13:52:00,
2013-04-08 14:02:00,32.0,29.0,-100.00,East,100,6.0,11.0,90,0.00,,,0.00,48.000000,,2013-04-08 14:02:00,
2013-04-08 14:33:00,35.0,32.0,-100.00,ENE,70,2.0,9.0,87,0.01,,,0.01,74.000000,,2013-04-08 14:33:00,
2013-04-08 14:43:00,35.0,32.0,-100.00,ENE,70,2.0,9.0,87,0.01,,,0.01,74.000000,,2013-04-08 14:43:00,
2013-04-08 14:52:00,35.0,32.0,-100.00,ENE,70,2.0,9.0,87,0.01,,,0.01,74.000000,,2013-04-08 14:52:00,
2013-04-08 15:02:00,35.0,32.0,-100.00,ENE,70,2.0,9.0,87,0.01,,,0.01,74.000000,,2013-04-08 15:02:00,
2013-04-08 15:03:00,35.0,31.0,-100.00,East,90,6.0,10.0,85,0.00,,,-99.99,85.000000,,2013-04-08 15:03:00,
2013-04-08 15:35:00,35.0,31.0,-100.00,East,90,6.0,10.0,85,0.00,,,-99.99,85.000000,,2013-04-08 15:35:00,
2013-04-08 15:43:00,35.0,31.0,-100.00,East,90,6.0,10.0,85,0.00,,,-99.99,85.000000,,2013-04-08 15:43:00,
2013-04-08 15:53:00,35.0,31.0,-100.00,East,90,6.0,10.0,85,0.00,,,-99.99,85.000000,,2013-04-08 15:53:00,
2013-04-08 16:03:00,36.0,30.0,-100.00,East,89,8.0,12.0,79,0.00,,,0.01,138.000000,,2013-04-08 16:03:00,
2013-04-08 16:33:00,36.0,30.0,-100.00,East,89,8.0,12.0,79,0.00,,,0.01,138.000000,,2013-04-08 16:33:00,
2013-04-08 16:42:00,36.0,30.0,-100.00,East,89,8.0,12.0,79,0.00,,,0.01,138.000000,,2013-04-08 16:42:00,
2013-04-08 16:53:00,36.0,30.0,-100.00,East,89,8.0,12.0,79,0.00,,,0.01,138.000000,,2013-04-08 16:53:00,
2013-04-08 17:32:00,36.0,31.0,-100.00,East,96,4.0,11.0,82,0.01,,,0.02,135.000000,,2013-04-08 17:32:00,
2013-04-08 17:44:00,36.0,31.0,-100.00,East,96,4.0,11.0,82,0.01,,,0.02,135.000000,,2013-04-08 17:44:00,
2013-04-08 17:52:00,36.0,31.0,-100.00,East,96,4.0,11.0,82,0.01,,,0.02,135.000000,,2013-04-08 17:52:00,
2013-04-08 18:02:00,36.0,31.0,-100.00,East,96,4.0,11.0,82,0.01,,,0.02,135.000000,,2013-04-08 18:02:00,
2013-04-08 18:32:00,37.0,32.0,-100.00,East,86,8.0,13.0,83,0.00,,,0.02,219.000000,,2013-04-08 18:32:00,
2013-04-08 18:42:00,37.0,32.0,-100.00,East,86,8.0,13.0,83,0.00,,,0.02,219.000000,,2013-04-08 18:42:00,
2013-04-08 18:52:00,37.0,32.0,-100.00,East,86,8.0,13.0,83,0.00,,,0.02,219.000000,,2013-04-08 18:52:00,
2013-04-08 19:02:00,37.0,32.0,-100.00,East,86,8.0,13.0,83,0.00,,,0.02,219.000000,,2013-04-08 19:02:00,
2013-04-08 19:33:00,39.0,32.0,-100.00,East,95,7.0,13.0,75,0.01,,,0.03,272.000000,,2013-04-08 19:33:00,
2013-04-08 19:43:00,39.0,32.0,-100.00,East,95,7.0,13.0,75,0.01,,,0.03,272.000000,,2013-04-08 19:43:00,
2013-04-08 19:52:00,39.0,32.0,-100.00,East,95,7.0,13.0,75,0.01,,,0.03,272.000000,,2013-04-08 19:52:00,
2013-04-08 20:02:00,39.0,32.0,-100.00,East,95,7.0,13.0,75,0.01,,,0.03,272.000000,,2013-04-08 20:02:00,
2013-04-08 20:33:00,38.0,31.0,-100.00,East,85,7.0,15.0,75,0.00,,,0.03,177.000000,,2013-04-08 20:33:00,
2013-04-08 20:43:00,38.0,31.0,-100.00,East,85,7.0,15.0,75,0.00,,,0.03,177.000000,,2013-04-08 20:43:00,
2013-04-08 20:52:00,38.0,31.0,-100.00,East,85,7.0,15.0,75,0.00,,,0.03,177.000000,,2013-04-08 20:52:00,
2013-04-08 21:02:00,38.0,31.0,-100.00,East,85,7.0,15.0,75,0.00,,,0.03,177.000000,,2013-04-08 21:02:00,
2013-04-08 21:03:00,38.0,34.0,-100.00,NE,39,3.0,9.0,87,0.03,,,0.06,108.000000,,2013-04-08 21:03:00,
2013-04-08 21:22:00,38.0,34.0,-100.00,NE,39,3.0,9.0,87,0.03,,,0.06,108.000000,,2013-04-08 21:22:00,
2013-04-08 21:33:00,38.0,34.0,-100.00,NE,39,3.0,9.0,87,0.03,,,0.06,108.000000,,2013-04-08 21:33:00,
2013-04-08 21:43:00,38.0,34.0,-100.00,NE,39,3.0,9.0,87,0.03,,,0.06,108.000000,,2013-04-08 21:43:00,
2013-04-08 21:53:00,38.0,34.0,-100.00,NE,39,3.0,9.0,87,0.03,,,0.06,108.000000,,2013-04-08 21:53:00,
2013-04-08 22:23:00,38.0,36.0,-100.00,NE,45,3.0,6.0,92,0.05,,,0.11,88.000000,,2013-04-08 22:23:00,
2013-04-08 22:32:00,38.0,36.0,-100.00,NE,45,3.0,6.0,92,0.05,,,0.11,88.000000,,2013-04-08 22:32:00,
2013-04-08 22:53:00,38.0,36.0,-100.00,NE,45,3.0,6.0,92,0.05,,,0.11,88.000000,,2013-04-08 22:53:00,
2013-04-08 23:02:00,38.0,36.0,-100.00,NE,45,3.0,6.0,92,0.05,,,0.11,88.000000,,2013-04-08 23:02:00,
2013-04-08 23:32:00,37.0,35.0,-100.00,ENE,57,4.0,8.0,93,0.05,,,0.16,49.000000,,2013-04-08 23:32:00,
2013-04-08 23:43:00,37.0,35.0,-100.00,ENE,57,4.0,8.0,93,0.05,,,0.16,49.000000,,2013-04-08 23:43:00,
2013-04-08 23:52:00,37.0,35.0,-100.00,ENE,57,4.0,8.0,93,0.05,,,0.16,49.000000,,2013-04-08 23:52:00,